createdAt,value
2023-02-16T04:02:19.519Z,3.30
2023-02-16T04:04:47.879Z,3.40
2023-02-16T04:07:15.681Z,3.30
2023-02-16T04:09:43.509Z,3.40
2023-02-16T04:12:30.890Z,3.40
2023-02-16T04:14:59.785Z,3.30
2023-02-16T04:17:29.309Z,3.40
2023-02-16T04:19:57.284Z,3.30
2023-02-16T04:22:25.252Z,3.30
2023-02-16T04:24:53.127Z,3.30
2023-02-16T04:27:21.124Z,3.40
2023-02-16T04:29:48.943Z,3.40
2023-02-16T04:32:16.878Z,3.40
2023-02-16T04:34:46.199Z,3.30
2023-02-16T04:37:14.290Z,3.30
2023-02-16T04:39:42.284Z,3.40
2023-02-16T04:42:10.155Z,3.30
2023-02-16T04:44:38.012Z,3.40
2023-02-16T04:47:05.990Z,3.40
2023-02-16T04:49:33.849Z,3.20
2023-02-16T04:52:03.894Z,3.10
2023-02-16T04:54:32.278Z,3.20
2023-02-16T04:57:00.769Z,3.10
2023-02-16T04:59:28.736Z,3.00
2023-02-16T05:01:57.350Z,3.00
2023-02-16T05:04:27.099Z,3.00
2023-02-16T05:06:55.065Z,2.90
2023-02-16T05:09:24.296Z,2.70
2023-02-16T05:12:09.620Z,2.60
2023-02-16T05:14:44.915Z,2.60
2023-02-16T05:17:15.946Z,2.60
2023-02-16T05:19:45.416Z,2.70
2023-02-16T05:22:13.569Z,2.70
2023-02-16T05:24:43.407Z,2.80
2023-02-16T05:27:15.710Z,2.80
2023-02-16T05:29:43.599Z,2.80
2023-02-16T05:32:11.503Z,2.70
2023-02-16T05:34:39.542Z,2.60
2023-02-16T05:37:07.619Z,2.70
2023-02-16T05:39:35.772Z,2.70
2023-02-16T05:42:05.453Z,2.80
2023-02-16T05:44:33.314Z,2.90
2023-02-16T05:47:01.305Z,2.90
2023-02-16T05:49:29.176Z,2.90
2023-02-16T05:51:57.739Z,3.00
2023-02-16T05:54:25.796Z,3.00
2023-02-16T05:56:54.079Z,2.90
2023-02-16T05:59:23.285Z,3.00
2023-02-16T06:01:52.337Z,2.90
2023-02-16T06:04:21.731Z,2.80
2023-02-16T06:06:49.744Z,2.90
2023-02-16T06:09:17.811Z,3.00
2023-02-16T06:11:45.685Z,2.80
2023-02-16T06:14:15.994Z,2.80
2023-02-16T06:16:47.471Z,2.70
2023-02-16T06:19:16.241Z,2.60
2023-02-16T06:21:44.733Z,2.50
2023-02-16T06:24:14.002Z,2.50
2023-02-16T06:26:42.171Z,2.50
2023-02-16T06:29:10.646Z,2.60
2023-02-16T06:31:38.608Z,2.50
2023-02-16T06:34:08.186Z,2.50
2023-02-16T06:36:36.121Z,2.60
2023-02-16T06:39:04.541Z,2.60
2023-02-16T06:41:35.360Z,2.60
2023-02-16T06:44:06.305Z,2.70
2023-02-16T06:46:34.401Z,2.60
2023-02-16T06:49:02.811Z,2.60
2023-02-16T06:51:31.998Z,2.60
2023-02-16T06:54:00.055Z,2.60
2023-02-16T06:56:27.959Z,2.60
2023-02-16T06:58:55.801Z,2.70
2023-02-16T07:01:25.616Z,2.80
2023-02-16T07:03:54.605Z,2.90
2023-02-16T07:06:24.124Z,3.00
2023-02-16T07:08:53.731Z,3.00
2023-02-16T07:11:21.740Z,3.00
2023-02-16T07:13:50.095Z,2.90
2023-02-16T07:16:18.274Z,2.80
2023-02-16T07:18:46.501Z,2.70
2023-02-16T07:21:14.821Z,2.90
2023-02-16T07:23:42.693Z,3.00
2023-02-16T07:26:12.367Z,3.00
2023-02-16T07:28:40.211Z,3.00
2023-02-16T07:31:09.779Z,2.90
2023-02-16T07:33:37.805Z,2.90
2023-02-16T07:36:06.936Z,2.80
2023-02-16T07:38:34.883Z,2.70
2023-02-16T07:41:03.432Z,2.60
2023-02-16T07:43:34.690Z,2.50
2023-02-16T07:46:02.731Z,2.50
2023-02-16T07:48:30.569Z,2.60
2023-02-16T07:50:58.491Z,2.60
2023-02-16T07:53:26.328Z,2.70
2023-02-16T07:55:54.539Z,2.60
2023-02-16T07:58:28.074Z,2.70
2023-02-16T08:00:58.273Z,2.70
2023-02-16T08:03:26.549Z,2.90
2023-02-16T08:05:54.719Z,2.80
2023-02-16T08:08:22.547Z,2.90
2023-02-16T08:10:50.750Z,2.80
2023-02-16T08:13:18.600Z,2.80
2023-02-16T08:15:46.666Z,2.90
2023-02-16T08:18:16.202Z,2.80
2023-02-16T08:21:01.471Z,3.00
2023-02-16T08:23:31.664Z,3.10
2023-02-16T08:25:59.878Z,3.20
2023-02-16T08:28:28.916Z,3.10
2023-02-16T08:30:57.264Z,3.10
2023-02-16T08:33:26.486Z,3.10
2023-02-16T08:35:54.382Z,3.20
2023-02-16T08:38:22.741Z,3.30
2023-02-16T08:40:51.096Z,3.20
2023-02-16T08:43:18.974Z,3.30
2023-02-16T08:45:47.702Z,3.30
2023-02-16T08:48:16.550Z,3.30
2023-02-16T08:50:53.196Z,3.40
2023-02-16T08:53:21.269Z,3.40
2023-02-16T08:55:53.213Z,3.40
2023-02-16T08:58:21.063Z,3.30
2023-02-16T09:00:49.643Z,3.20
2023-02-16T09:03:19.189Z,3.20
2023-02-16T09:05:49.323Z,3.20
2023-02-16T09:08:18.189Z,3.20
2023-02-16T09:10:46.564Z,3.20
2023-02-16T09:13:16.041Z,3.10
2023-02-16T09:15:44.760Z,3.10
2023-02-16T09:18:13.997Z,3.10
2023-02-16T09:20:46.406Z,3.20
2023-02-16T09:23:16.167Z,3.10
2023-02-16T09:25:44.004Z,3.10
2023-02-16T09:28:12.385Z,3.20
2023-02-16T09:30:40.465Z,3.30
2023-02-16T09:33:08.521Z,3.20
2023-02-16T09:35:38.902Z,3.40
2023-02-16T09:38:08.612Z,3.50
2023-02-16T09:40:38.906Z,3.50
2023-02-16T09:43:16.940Z,3.60
2023-02-16T09:45:47.802Z,3.80
2023-02-16T09:48:25.366Z,3.70
2023-02-16T09:50:55.340Z,3.60
2023-02-16T09:53:31.375Z,3.40
2023-02-16T09:56:09.222Z,3.50
2023-02-16T09:58:43.170Z,3.50
2023-02-16T10:01:21.359Z,3.60
2023-02-16T10:03:59.629Z,3.70
2023-02-16T10:06:42.950Z,3.90
2023-02-16T10:09:13.621Z,4.00
2023-02-16T10:11:48.861Z,4.20
2023-02-16T10:14:25.952Z,4.30
2023-02-16T10:16:58.494Z,4.40
2023-02-16T10:19:30.337Z,4.20
2023-02-16T10:22:03.297Z,4.20
2023-02-16T10:24:37.732Z,4.20
2023-02-16T10:27:12.122Z,4.20
2023-02-16T10:29:39.998Z,4.10
2023-02-16T10:32:16.587Z,4.10
2023-02-16T10:34:50.847Z,3.90
2023-02-16T10:37:33.869Z,4.00
2023-02-16T10:40:16.336Z,4.30
2023-02-16T10:42:51.493Z,4.30
2023-02-16T10:45:28.431Z,4.40
2023-02-16T10:47:56.348Z,4.70
2023-02-16T10:50:28.177Z,4.80
2023-02-16T10:53:00.636Z,4.90
2023-02-16T10:55:28.675Z,4.90
2023-02-16T10:58:01.295Z,5.00
2023-02-16T11:00:44.150Z,5.00
2023-02-16T11:03:14.016Z,5.00
2023-02-16T11:05:43.009Z,5.00
2023-02-16T11:08:12.909Z,5.00
2023-02-16T11:10:48.921Z,4.90
2023-02-16T11:13:29.780Z,5.00
2023-02-16T11:15:59.759Z,5.00
2023-02-16T11:18:34.501Z,5.00
2023-02-16T11:21:03.921Z,5.00
2023-02-16T11:23:33.586Z,5.10
2023-02-16T11:26:05.515Z,5.10
2023-02-16T11:28:37.133Z,5.00
2023-02-16T11:31:18.583Z,5.20
2023-02-16T11:33:59.049Z,5.10
2023-02-16T11:36:32.707Z,5.30
2023-02-16T11:39:04.443Z,5.30
2023-02-16T11:41:33.515Z,5.40
2023-02-16T11:44:04.057Z,5.20
2023-02-16T11:46:41.540Z,5.20
2023-02-16T11:49:32.525Z,5.30
2023-02-16T11:52:01.452Z,5.10
2023-02-16T11:54:29.341Z,5.10
2023-02-16T11:57:06.393Z,4.90
2023-02-16T11:59:39.076Z,5.00
2023-02-16T12:02:36.573Z,5.10
2023-02-16T12:05:19.259Z,5.10
2023-02-16T12:08:09.622Z,5.30
2023-02-16T12:10:43.509Z,5.60
2023-02-16T12:13:18.694Z,5.90
2023-02-16T12:15:54.778Z,5.90
2023-02-16T12:18:32.422Z,5.90
2023-02-16T12:21:10.690Z,5.90
2023-02-16T12:23:42.471Z,6.20
2023-02-16T12:26:31.603Z,6.50
2023-02-16T12:29:11.132Z,6.70
2023-02-16T12:31:58.874Z,6.60
2023-02-16T12:34:33.453Z,6.70
2023-02-16T12:37:10.024Z,6.90
2023-02-16T12:39:50.374Z,7.00
2023-02-16T12:42:36.833Z,7.00
2023-02-16T12:45:10.051Z,7.00
2023-02-16T12:47:42.875Z,6.90
2023-02-16T12:50:20.642Z,6.90
2023-02-16T12:52:54.044Z,6.80
2023-02-16T12:55:27.245Z,6.70
2023-02-16T12:58:02.728Z,6.70
2023-02-16T13:00:40.883Z,6.50
2023-02-16T13:03:21.733Z,6.30
2023-02-16T13:05:57.828Z,6.50
2023-02-16T13:08:38.791Z,6.70
2023-02-16T13:11:12.507Z,6.60
2023-02-16T13:13:41.965Z,6.50
2023-02-16T13:16:28.942Z,6.50
2023-02-16T13:18:59.213Z,6.60
2023-02-16T13:21:51.041Z,6.60
2023-02-16T13:24:33.405Z,6.60
2023-02-16T13:27:12.190Z,6.80
2023-02-16T13:30:06.465Z,6.70
2023-02-16T13:32:54.626Z,6.70
2023-02-16T13:35:37.481Z,6.80
2023-02-16T13:38:22.485Z,7.00
2023-02-16T13:41:11.650Z,7.00
2023-02-16T13:43:43.366Z,7.00
2023-02-16T13:46:17.331Z,7.10
2023-02-16T13:48:48.306Z,7.10
2023-02-16T13:51:20.663Z,7.00
2023-02-16T13:53:54.645Z,6.90
2023-02-16T13:56:33.478Z,6.90
2023-02-16T13:59:39.567Z,6.80
2023-02-16T14:02:13.896Z,6.90
2023-02-16T14:05:02.216Z,7.00
2023-02-16T14:07:35.996Z,7.00
2023-02-16T14:10:04.131Z,7.10
2023-02-16T14:12:36.134Z,7.20
2023-02-16T14:15:05.463Z,7.20
2023-02-16T14:17:36.393Z,7.20
2023-02-16T14:20:07.373Z,7.20
2023-02-16T14:22:42.220Z,7.20
2023-02-16T14:25:40.763Z,7.10
2023-02-16T14:28:42.248Z,7.10
2023-02-16T14:31:15.103Z,7.10
2023-02-16T14:33:48.802Z,7.00
2023-02-16T14:36:18.508Z,7.10
2023-02-16T14:38:48.467Z,7.00
2023-02-16T14:41:26.587Z,7.10
2023-02-16T14:43:59.928Z,7.10
2023-02-16T14:46:46.929Z,7.10
2023-02-16T14:49:51.567Z,7.00
2023-02-16T14:52:51.433Z,7.00
2023-02-16T14:55:41.372Z,6.90
2023-02-16T14:58:23.357Z,6.90
2023-02-16T15:00:54.735Z,6.90
2023-02-16T15:03:25.306Z,6.90
2023-02-16T15:05:58.170Z,6.90
2023-02-16T15:08:34.902Z,6.80
2023-02-16T15:11:13.680Z,6.90
2023-02-16T15:13:42.753Z,6.80
2023-02-16T15:16:15.692Z,6.80
2023-02-16T15:18:47.636Z,6.70
2023-02-16T15:21:21.643Z,6.80
2023-02-16T15:23:51.532Z,6.80
2023-02-16T15:26:22.185Z,6.80
2023-02-16T15:28:55.514Z,6.70
2023-02-16T15:31:30.903Z,6.80
2023-02-16T15:34:00.903Z,6.80
2023-02-16T15:36:35.753Z,6.80
2023-02-16T15:39:06.064Z,6.60
2023-02-16T15:41:36.508Z,6.50
2023-02-16T15:44:06.204Z,6.50
2023-02-16T15:46:35.909Z,6.50
2023-02-16T15:49:12.730Z,6.40
2023-02-16T15:51:43.273Z,6.40
2023-02-16T15:54:23.401Z,6.20
2023-02-16T15:56:53.442Z,6.10
2023-02-16T15:59:32.476Z,6.00
2023-02-16T16:02:05.318Z,6.00
2023-02-16T16:04:38.486Z,6.10
2023-02-16T16:07:09.257Z,6.20
2023-02-16T16:09:37.761Z,6.10
2023-02-16T16:12:09.052Z,6.10
2023-02-16T16:14:40.989Z,6.20
2023-02-16T16:17:13.885Z,6.00
2023-02-16T16:19:42.030Z,5.80
2023-02-16T16:22:30.118Z,5.80
2023-02-16T16:24:58.249Z,5.70
2023-02-16T16:27:32.419Z,5.60
2023-02-16T16:30:29.689Z,5.60
2023-02-16T16:33:02.467Z,5.60
2023-02-16T16:35:39.750Z,5.80
2023-02-16T16:38:22.895Z,5.80
2023-02-16T16:40:52.702Z,5.80
2023-02-16T16:43:29.850Z,5.80
2023-02-16T16:46:12.102Z,5.90
2023-02-16T16:48:44.264Z,5.90
2023-02-16T16:51:14.698Z,5.80
2023-02-16T16:53:52.951Z,5.70
2023-02-16T16:56:21.893Z,5.60
2023-02-16T16:58:51.330Z,5.40
2023-02-16T17:01:20.128Z,5.30
2023-02-16T17:03:48.691Z,5.20
2023-02-16T17:06:17.585Z,5.10
2023-02-16T17:08:51.097Z,5.10
2023-02-16T17:11:26.580Z,5.10
2023-02-16T17:13:55.794Z,5.10
2023-02-16T17:16:28.351Z,5.20
2023-02-16T17:18:56.385Z,5.20
2023-02-16T17:21:24.487Z,5.20
2023-02-16T17:23:53.825Z,5.20
2023-02-16T17:26:22.201Z,5.20
2023-02-16T17:28:50.497Z,5.10
2023-02-16T17:31:18.465Z,5.20
2023-02-16T17:33:46.392Z,5.10
2023-02-16T17:36:16.539Z,5.10
2023-02-16T17:38:44.839Z,5.10
2023-02-16T17:41:20.851Z,5.10
2023-02-16T17:43:48.944Z,5.10
2023-02-16T17:46:17.304Z,5.00
2023-02-16T17:48:45.589Z,5.10
2023-02-16T17:51:15.859Z,5.10
2023-02-16T17:53:43.713Z,5.10
2023-02-16T17:56:13.141Z,5.10
2023-02-16T17:58:42.699Z,5.10
2023-02-16T18:01:13.403Z,5.10
2023-02-16T18:03:41.392Z,5.10
2023-02-16T18:06:12.529Z,5.00
2023-02-16T18:08:40.426Z,5.10
2023-02-16T18:11:08.260Z,5.10
2023-02-16T18:13:36.419Z,5.00
2023-02-16T18:16:07.247Z,5.00
2023-02-16T18:18:39.095Z,5.10
2023-02-16T18:21:07.890Z,5.10
2023-02-16T18:23:36.247Z,5.20
2023-02-16T18:26:05.118Z,5.20
2023-02-16T18:28:34.905Z,5.20
2023-02-16T18:31:06.142Z,5.20
2023-02-16T18:33:35.996Z,5.20
2023-02-16T18:36:05.090Z,5.30
2023-02-16T18:38:33.454Z,5.30
2023-02-16T18:41:01.317Z,5.30
2023-02-16T18:43:29.268Z,5.40
2023-02-16T18:45:57.120Z,5.50
2023-02-16T18:48:25.141Z,5.50
2023-02-16T18:50:54.361Z,5.60
2023-02-16T18:53:22.207Z,5.70
2023-02-16T18:55:50.180Z,5.70
2023-02-16T18:58:18.233Z,5.50
2023-02-16T19:00:46.128Z,5.50
2023-02-16T19:03:14.076Z,5.50
2023-02-16T19:05:42.030Z,5.60
2023-02-16T19:08:11.432Z,5.50
2023-02-16T19:10:39.309Z,5.50
2023-02-16T19:13:07.420Z,5.50
2023-02-16T19:15:36.726Z,5.50
2023-02-16T19:18:05.106Z,5.50
2023-02-16T19:20:32.927Z,5.40
2023-02-16T19:23:00.846Z,5.30
2023-02-16T19:25:30.245Z,5.40
2023-02-16T19:27:58.183Z,5.40
2023-02-16T19:30:26.103Z,5.30
2023-02-16T19:32:54.022Z,5.40
2023-02-16T19:35:21.989Z,5.40
2023-02-16T19:37:49.833Z,5.50
2023-02-16T19:40:18.674Z,5.50
2023-02-16T19:42:47.854Z,5.60
2023-02-16T19:45:15.710Z,5.60
2023-02-16T19:47:43.532Z,5.60
2023-02-16T19:50:11.743Z,5.60
2023-02-16T19:52:39.607Z,5.50
2023-02-16T19:55:09.075Z,5.30
2023-02-16T19:57:37.957Z,5.30
2023-02-16T20:00:11.461Z,5.40
2023-02-16T20:02:41.976Z,5.40
2023-02-16T20:05:11.106Z,5.50
2023-02-16T20:07:39.056Z,5.50
2023-02-16T20:10:08.319Z,5.50
2023-02-16T20:12:36.143Z,5.50
2023-02-16T20:15:05.548Z,5.50
2023-02-16T20:17:34.705Z,5.60
2023-02-16T20:20:02.818Z,5.60
2023-02-16T20:22:30.650Z,5.60
2023-02-16T20:24:58.583Z,5.60
2023-02-16T20:27:27.761Z,5.50
2023-02-16T20:29:55.743Z,5.50
2023-02-16T20:32:25.192Z,5.40
2023-02-16T20:34:54.443Z,5.40
2023-02-16T20:37:22.660Z,5.50
2023-02-16T20:39:50.914Z,5.50
2023-02-16T20:42:18.779Z,5.50
2023-02-16T20:44:46.661Z,5.50
2023-02-16T20:47:14.676Z,5.20
2023-02-16T20:49:42.566Z,5.20
2023-02-16T20:52:12.630Z,5.20
2023-02-16T20:54:40.483Z,5.20
2023-02-16T20:57:21.331Z,5.30
2023-02-16T20:59:54.164Z,5.40
2023-02-16T21:02:22.066Z,5.40
2023-02-16T21:04:50.100Z,5.50
2023-02-16T21:07:19.277Z,5.40
2023-02-16T21:09:47.123Z,5.40
2023-02-16T21:12:15.112Z,5.40
2023-02-16T21:14:42.971Z,5.50
2023-02-16T21:17:10.808Z,5.50
2023-02-16T21:19:39.072Z,5.50
2023-02-16T21:22:06.990Z,5.50
2023-02-16T21:24:36.320Z,5.50
2023-02-16T21:27:04.247Z,5.50
2023-02-16T21:29:32.077Z,5.50
2023-02-16T21:32:00.527Z,5.50
2023-02-16T21:34:28.561Z,5.50
2023-02-16T21:36:56.470Z,5.40
2023-02-16T21:39:44.660Z,5.40
2023-02-16T21:42:12.978Z,5.40
2023-02-16T21:44:43.095Z,5.40
2023-02-16T21:47:30.813Z,5.40
2023-02-16T21:49:58.780Z,5.30
2023-02-16T21:52:27.288Z,5.00
2023-02-16T21:55:12.623Z,4.90
2023-02-16T21:57:42.177Z,5.00
2023-02-16T22:00:15.424Z,5.00
2023-02-16T22:02:43.322Z,5.00
2023-02-16T22:05:13.481Z,5.00
2023-02-16T22:07:41.651Z,5.00
2023-02-16T22:10:10.356Z,5.00
2023-02-16T22:12:38.216Z,5.10
2023-02-16T22:15:08.105Z,4.90
2023-02-16T22:17:35.986Z,4.90
2023-02-16T22:20:04.487Z,5.00
2023-02-16T22:22:32.341Z,4.90
2023-02-16T22:25:00.150Z,4.90
2023-02-16T22:27:27.997Z,5.00
2023-02-16T22:29:56.263Z,5.00
2023-02-16T22:32:25.566Z,5.10
2023-02-16T22:34:55.214Z,5.10
2023-02-16T22:37:23.066Z,5.00
2023-02-16T22:39:51.877Z,5.10
2023-02-16T22:42:19.816Z,5.00
2023-02-16T22:44:47.685Z,5.00
2023-02-16T22:47:15.734Z,5.10
2023-02-16T22:49:45.029Z,5.10
2023-02-16T22:52:12.962Z,5.20
2023-02-16T22:54:40.805Z,5.20
2023-02-16T22:57:08.689Z,5.30
2023-02-16T22:59:36.881Z,5.30
